Time;durP1;ratioP1;P1;durP2;ratioP2;P2;SDS_P1;SDS_P2;PMS_P1;PMS_P2;Temp;Humidity;BMP_temperature;BMP_pressure;BME280_temperature;BME280_humidity;BME280_pressure;Samples;Min_cycle;Max_cycle;Signal;HPM_P1;HPM_P2
2023/01/29 00:02:16;;;;;;;10.30;4.67;;;-0.80;99.90;;;;;;5055477;28;20654;-75
2023/01/29 00:04:42;;;;;;;9.90;4.07;;;-0.80;99.90;;;;;;5072896;28;20188;-75
2023/01/29 00:07:07;;;;;;;8.40;4.40;;;-0.80;99.90;;;;;;5072493;28;20219;-75
2023/01/29 00:09:33;;;;;;;10.33;4.10;;;-0.80;99.90;;;;;;5070264;28;20181;-75
2023/01/29 00:11:59;;;;;;;9.77;4.60;;;-0.80;99.90;;;;;;5057032;28;20548;-75
2023/01/29 00:14:28;;;;;;;10.60;4.90;;;-0.80;99.90;;;;;;5061856;28;20535;-75
2023/01/29 00:16:54;;;;;;;8.37;5.00;;;-0.80;99.90;;;;;;5058956;28;20645;-75
2023/01/29 00:19:19;;;;;;;10.63;5.13;;;-0.80;99.90;;;;;;5072529;28;20434;-75
2023/01/29 00:21:45;;;;;;;9.33;4.93;;;-0.90;99.90;;;;;;5067225;28;20422;-75
2023/01/29 00:24:11;;;;;;;10.30;5.73;;;-0.80;99.90;;;;;;5072430;28;20212;-75
2023/01/29 00:26:38;;;;;;;10.60;5.07;;;-0.90;99.90;;;;;;5056589;28;20212;-75
2023/01/29 00:29:04;;;;;;;12.03;5.43;;;-0.80;99.90;;;;;;5072452;28;20895;-75
2023/01/29 00:31:30;;;;;;;10.33;4.70;;;-0.80;99.90;;;;;;5072061;28;20639;-76
2023/01/29 00:33:56;;;;;;;10.87;4.23;;;-0.80;99.90;;;;;;5072450;28;20509;-75
2023/01/29 00:36:23;;;;;;;11.73;5.47;;;-0.80;99.90;;;;;;5072002;28;20193;-75
2023/01/29 00:39:01;;;;;;;10.03;4.30;;;-0.90;99.90;;;;;;5071368;28;20423;-75
2023/01/29 00:46:57;;;;;;;14.27;4.60;;;-0.90;99.90;;;;;;5061099;28;20569;-76
2023/01/29 00:49:23;;;;;;;10.97;5.33;;;-0.80;99.90;;;;;;5069668;28;20415;-75
2023/01/29 00:54:33;;;;;;;8.00;4.30;;;-0.80;99.90;;;;;;5046053;28;20223;-75
2023/01/29 00:56:59;;;;;;;10.13;5.27;;;-0.80;99.90;;;;;;5072066;28;20776;-76
2023/01/29 00:59:24;;;;;;;8.53;4.63;;;-0.80;99.90;;;;;;5053124;28;20182;-76
2023/01/29 01:04:34;;;;;;;7.53;4.80;;;-0.80;99.90;;;;;;5050251;28;20230;-76
2023/01/29 01:07:00;;;;;;;8.63;4.50;;;-0.80;99.90;;;;;;5071277;28;20507;-76
2023/01/29 01:12:09;;;;;;;5.93;3.40;;;-0.70;99.90;;;;;;5064835;28;20273;-76
2023/01/29 01:14:35;;;;;;;9.00;4.63;;;-0.70;99.90;;;;;;5063212;28;20506;-76
2023/01/29 01:17:00;;;;;;;7.57;4.50;;;-0.80;99.90;;;;;;5053944;28;20197;-76
2023/01/29 01:19:26;;;;;;;6.20;4.07;;;-0.80;99.90;;;;;;5061086;28;20633;-76
2023/01/29 01:21:52;;;;;;;11.10;5.30;;;-0.80;99.90;;;;;;5055621;28;20192;-76
2023/01/29 01:24:19;;;;;;;8.40;4.50;;;-0.90;99.90;;;;;;5070727;28;20185;-76
2023/01/29 01:26:44;;;;;;;9.77;5.30;;;-0.90;99.90;;;;;;5058264;28;20197;-76
2023/01/29 01:29:10;;;;;;;11.37;6.20;;;-0.90;99.90;;;;;;5072064;28;21112;-76
2023/01/29 01:31:35;;;;;;;10.83;5.40;;;-0.90;99.90;;;;;;5071606;28;20196;-77
2023/01/29 01:34:01;;;;;;;7.70;4.33;;;-0.90;99.90;;;;;;5071874;28;20554;-76
2023/01/29 01:36:27;;;;;;;10.80;4.73;;;-0.90;99.90;;;;;;5066902;28;20232;-77
2023/01/29 01:38:53;;;;;;;12.60;4.87;;;-0.80;99.90;;;;;;5063306;28;20188;-76
2023/01/29 01:41:20;;;;;;;8.83;4.17;;;-0.80;99.90;;;;;;5054507;28;20181;-76
2023/01/29 01:43:56;;;;;;;6.97;4.70;;;-0.80;99.90;;;;;;5055926;28;20803;-77
2023/01/29 01:46:36;;;;;;;10.83;4.97;;;-0.80;99.90;;;;;;5057262;28;20459;-77
2023/01/29 01:49:14;;;;;;;9.37;4.20;;;-0.80;99.90;;;;;;5070739;28;20418;-77
2023/01/29 01:51:44;;;;;;;8.87;4.37;;;-0.80;99.90;;;;;;5041825;28;20449;-76
2023/01/29 01:54:22;;;;;;;10.47;5.07;;;-0.80;99.90;;;;;;5065032;28;20645;-77
2023/01/29 01:56:54;;;;;;;8.17;4.13;;;-0.80;99.90;;;;;;5063913;28;20419;-77
2023/01/29 01:59:21;;;;;;;7.10;4.93;;;-0.90;99.90;;;;;;5071601;28;20426;-77
2023/01/29 02:01:52;;;;;;;6.10;4.30;;;-0.90;99.90;;;;;;5070860;28;20419;-77
2023/01/29 02:10:07;;;;;;;16.43;5.07;;;-0.90;99.90;;;;;;5071698;28;20863;-77
2023/01/29 02:12:34;;;;;;;21.73;3.90;;;-0.90;99.90;;;;;;5062335;28;20410;-77
2023/01/29 02:15:01;;;;;;;8.03;4.60;;;-0.90;99.90;;;;;;5069948;28;20465;-77
2023/01/29 02:17:26;;;;;;;5.57;3.67;;;-0.90;99.90;;;;;;5059807;28;20435;-77
2023/01/29 02:19:52;;;;;;;8.10;3.83;;;-0.90;99.90;;;;;;5072242;28;20931;-77
2023/01/29 02:22:42;;;;;;;7.50;3.67;;;-0.90;99.90;;;;;;5066611;28;20205;-77
2023/01/29 02:25:11;;;;;;;8.60;4.00;;;-1.00;99.90;;;;;;5073134;28;20827;-77
2023/01/29 02:27:48;;;;;;;7.40;3.40;;;-1.00;99.90;;;;;;5074587;28;20470;-76
2023/01/29 02:30:32;;;;;;;8.37;4.00;;;-1.00;99.90;;;;;;5048323;28;20410;-76
2023/01/29 02:33:37;;;;;;;6.47;3.43;;;-1.00;99.90;;;;;;5072060;28;20917;-77
2023/01/29 02:36:26;;;;;;;7.03;3.67;;;-1.00;99.90;;;;;;5003671;28;20491;-76
2023/01/29 02:39:30;;;;;;;5.97;3.70;;;-1.00;99.90;;;;;;5074840;28;20805;-77
2023/01/29 02:42:35;;;;;;;10.33;5.40;;;-1.10;99.90;;;;;;5055379;28;20464;-77
2023/01/29 02:45:10;;;;;;;6.70;3.50;;;-1.10;99.90;;;;;;5065687;28;20488;-76
2023/01/29 02:47:41;;;;;;;9.10;4.53;;;-1.00;99.90;;;;;;5071726;28;20465;-77
2023/01/29 02:50:19;;;;;;;6.47;4.40;;;-1.00;99.90;;;;;;5058456;28;20823;-77
2023/01/29 02:53:04;;;;;;;9.67;4.20;;;-1.00;99.90;;;;;;5072578;28;20903;-77
2023/01/29 02:55:37;;;;;;;8.90;4.13;;;-1.00;99.90;;;;;;5073098;28;20518;-77
2023/01/29 02:58:24;;;;;;;8.67;4.13;;;-1.10;99.90;;;;;;5074422;28;20514;-77
2023/01/29 03:00:53;;;;;;;7.77;3.97;;;-1.10;99.90;;;;;;5074340;28;20794;-77
2023/01/29 03:03:21;;;;;;;5.77;3.40;;;-1.10;99.90;;;;;;5073714;28;20446;-76
2023/01/29 03:06:34;;;;;;;7.63;4.17;;;-1.10;99.90;;;;;;5073625;28;20557;-76
2023/01/29 03:09:03;;;;;;;7.83;4.23;;;-1.10;99.90;;;;;;5050133;28;20436;-77
2023/01/29 03:11:37;;;;;;;7.30;3.70;;;-1.10;99.90;;;;;;5058779;28;20526;-77
2023/01/29 03:14:09;;;;;;;10.87;4.93;;;-1.10;99.90;;;;;;5046961;28;20781;-77
2023/01/29 03:16:50;;;;;;;7.43;3.33;;;-1.10;99.90;;;;;;5071851;28;20439;-77
2023/01/29 03:19:47;;;;;;;12.67;3.90;;;-1.00;99.90;;;;;;5051567;28;20510;-77
2023/01/29 03:22:15;;;;;;;14.77;4.50;;;-1.00;99.90;;;;;;5072631;28;20868;-77
2023/01/29 03:33:12;;;;;;;6.30;3.73;;;-1.00;99.90;;;;;;5071711;28;20451;-77
2023/01/29 03:35:47;;;;;;;9.33;4.20;;;-1.10;99.90;;;;;;5064444;28;20420;-77
2023/01/29 03:38:13;;;;;;;8.43;3.57;;;-1.10;99.90;;;;;;5059997;28;20456;-77
2023/01/29 03:40:50;;;;;;;6.87;3.93;;;-1.10;99.90;;;;;;5073595;28;20419;-77
2023/01/29 03:43:25;;;;;;;6.60;3.20;;;-1.10;99.90;;;;;;5047908;28;20407;-77
2023/01/29 03:46:09;;;;;;;6.70;3.60;;;-1.00;99.90;;;;;;5072928;28;20425;-77
2023/01/29 03:48:57;;;;;;;6.67;3.90;;;-1.00;99.90;;;;;;5073406;28;20535;-77
2023/01/29 03:51:44;;;;;;;7.33;3.23;;;-1.10;99.90;;;;;;5060148;28;20892;-77
2023/01/29 03:54:25;;;;;;;7.00;3.90;;;-1.10;99.90;;;;;;5073076;28;20407;-77
2023/01/29 03:56:54;;;;;;;5.90;3.80;;;-1.10;99.90;;;;;;5072917;28;20507;-77
2023/01/29 03:59:31;;;;;;;6.77;4.30;;;-1.10;99.90;;;;;;5066505;28;20424;-77
2023/01/29 04:02:01;;;;;;;4.40;2.97;;;-1.10;99.90;;;;;;5053310;28;20396;-77
2023/01/29 04:04:30;;;;;;;7.83;3.60;;;-1.10;99.90;;;;;;5072714;28;20407;-77
2023/01/29 04:07:03;;;;;;;9.13;4.20;;;-1.10;99.90;;;;;;5070538;28;20551;-77
2023/01/29 04:09:41;;;;;;;9.20;3.63;;;-1.20;99.90;;;;;;5062479;28;20411;-77
2023/01/29 04:12:08;;;;;;;9.27;4.37;;;-1.20;99.90;;;;;;5057714;28;20572;-77
2023/01/29 04:14:35;;;;;;;8.53;4.47;;;-1.20;99.90;;;;;;5072466;28;20470;-77
2023/01/29 04:17:21;;;;;;;5.47;4.07;;;-1.20;99.90;;;;;;5071620;28;21060;-77
2023/01/29 04:19:47;;;;;;;11.13;4.03;;;-1.20;99.90;;;;;;5072341;28;20458;-77
2023/01/29 04:22:24;;;;;;;10.37;3.70;;;-1.20;99.90;;;;;;5059130;28;20411;-78
2023/01/29 04:24:50;;;;;;;6.63;3.87;;;-1.20;99.90;;;;;;5059283;28;20412;-77
2023/01/29 04:27:33;;;;;;;6.93;4.07;;;-1.30;99.90;;;;;;5064367;28;20463;-78
2023/01/29 04:30:05;;;;;;;8.73;3.60;;;-1.30;99.90;;;;;;5069491;28;20320;-77
2023/01/29 04:32:46;;;;;;;6.90;4.10;;;-1.20;99.90;;;;;;5059465;28;20425;-78
2023/01/29 04:35:36;;;;;;;7.40;3.90;;;-1.20;99.90;;;;;;5057984;28;20535;-78
2023/01/29 04:38:14;;;;;;;9.40;3.97;;;-1.20;99.90;;;;;;5053056;28;20442;-78
2023/01/29 04:40:50;;;;;;;5.23;3.63;;;-1.30;99.90;;;;;;5072165;28;20407;-78
2023/01/29 04:43:18;;;;;;;11.80;4.03;;;-1.20;99.90;;;;;;5069173;28;20837;-78
2023/01/29 04:45:52;;;;;;;9.70;2.87;;;-1.20;99.90;;;;;;5056562;28;20493;-77
2023/01/29 04:48:41;;;;;;;6.93;4.23;;;-1.30;99.90;;;;;;5070767;28;21020;-78
2023/01/29 04:51:16;;;;;;;5.03;3.07;;;-1.30;99.90;;;;;;5028531;28;20425;-78
2023/01/29 04:53:58;;;;;;;7.77;3.60;;;-1.30;99.90;;;;;;5062878;28;20427;-78
2023/01/29 04:56:27;;;;;;;8.87;4.50;;;-1.30;99.90;;;;;;5070031;28;20419;-78
2023/01/29 04:59:12;;;;;;;6.00;4.00;;;-1.30;99.90;;;;;;5060877;28;20416;-78
2023/01/29 05:01:38;;;;;;;4.40;3.20;;;-1.30;99.90;;;;;;5053683;28;20431;-78
2023/01/29 05:04:09;;;;;;;9.73;4.10;;;-1.30;99.90;;;;;;5066011;28;20464;-78
2023/01/29 05:06:36;;;;;;;8.80;3.87;;;-1.30;99.90;;;;;;5071963;28;20462;-78
2023/01/29 05:09:03;;;;;;;7.40;4.17;;;-1.30;99.90;;;;;;5072016;28;20602;-78
2023/01/29 05:11:31;;;;;;;6.17;3.20;;;-1.20;99.90;;;;;;5064900;28;20416;-77
2023/01/29 05:13:58;;;;;;;7.60;4.20;;;-1.20;99.90;;;;;;5065102;28;20750;-78
2023/01/29 05:16:28;;;;;;;7.40;4.03;;;-1.10;99.90;;;;;;5071957;28;20412;-78
2023/01/29 05:18:54;;;;;;;9.27;4.63;;;-1.10;99.90;;;;;;5072081;28;20917;-78
2023/01/29 05:21:22;;;;;;;7.13;3.83;;;-1.10;99.90;;;;;;5062963;28;20471;-77
2023/01/29 05:24:07;;;;;;;11.10;4.50;;;-1.10;99.90;;;;;;5054968;28;20212;-78
2023/01/29 05:29:17;;;;;;;6.63;3.40;;;-1.10;99.90;;;;;;5046787;28;20406;-78
2023/01/29 05:31:43;;;;;;;8.93;3.67;;;-1.10;99.90;;;;;;5057792;28;20413;-78
2023/01/29 05:34:09;;;;;;;8.40;3.90;;;-1.10;99.90;;;;;;5061252;28;20173;-78
2023/01/29 05:36:35;;;;;;;5.97;3.30;;;-1.10;99.90;;;;;;5069657;28;20437;-78
2023/01/29 05:39:00;;;;;;;8.33;4.40;;;-1.10;99.90;;;;;;5061476;28;20254;-78
2023/01/29 05:41:26;;;;;;;4.30;3.40;;;-1.10;99.90;;;;;;5067683;28;20209;-77
2023/01/29 05:43:52;;;;;;;6.97;4.20;;;-1.10;99.90;;;;;;5062855;28;20213;-75
2023/01/29 05:46:17;;;;;;;7.40;4.10;;;-1.10;99.90;;;;;;5065071;28;20668;-75
2023/01/29 05:48:43;;;;;;;8.70;4.30;;;-1.10;99.90;;;;;;5060379;28;20176;-75
2023/01/29 05:51:08;;;;;;;6.43;3.93;;;-1.00;99.90;;;;;;5058674;28;20170;-75
2023/01/29 05:53:34;;;;;;;8.97;4.00;;;-1.00;99.90;;;;;;5073129;28;20181;-75
2023/01/29 05:56:01;;;;;;;9.20;4.93;;;-1.00;99.90;;;;;;5062211;28;20193;-76
2023/01/29 05:58:26;;;;;;;7.47;4.30;;;-1.00;99.90;;;;;;5075663;28;20570;-76
2023/01/29 06:00:52;;;;;;;5.83;4.40;;;-1.00;99.90;;;;;;5075800;28;20414;-77
2023/01/29 06:03:17;;;;;;;8.50;4.20;;;-1.00;99.90;;;;;;5066092;28;20265;-76
2023/01/29 06:05:43;;;;;;;10.80;3.97;;;-1.00;99.90;;;;;;5068820;28;20173;-77
2023/01/29 06:08:09;;;;;;;7.53;3.73;;;-1.10;99.90;;;;;;5064380;28;20169;-76
2023/01/29 06:10:35;;;;;;;8.50;4.23;;;-1.10;99.90;;;;;;5075390;28;20181;-76
2023/01/29 06:13:01;;;;;;;7.23;3.23;;;-1.10;99.90;;;;;;5064109;28;20309;-76
2023/01/29 06:15:26;;;;;;;7.50;4.23;;;-1.10;99.90;;;;;;5073079;28;20907;-76
2023/01/29 06:17:53;;;;;;;8.67;4.20;;;-1.00;99.90;;;;;;5064003;28;20200;-76
2023/01/29 06:20:19;;;;;;;6.60;4.03;;;-1.00;99.90;;;;;;5073906;28;20235;-76
2023/01/29 06:22:44;;;;;;;4.23;3.00;;;-1.10;99.90;;;;;;5054442;28;20416;-76
2023/01/29 06:25:10;;;;;;;8.33;4.00;;;-1.00;99.90;;;;;;5070558;28;20890;-76
2023/01/29 06:27:36;;;;;;;8.40;4.37;;;-1.00;99.90;;;;;;5074956;28;20304;-76
2023/01/29 06:30:03;;;;;;;6.97;3.73;;;-1.00;99.90;;;;;;5059512;28;20170;-77
2023/01/29 06:32:29;;;;;;;6.40;3.90;;;-1.00;99.90;;;;;;5054857;28;20170;-76
2023/01/29 06:34:55;;;;;;;8.90;3.73;;;-1.00;99.90;;;;;;5070695;28;20407;-76
2023/01/29 06:37:20;;;;;;;8.00;3.80;;;-1.10;99.90;;;;;;5066197;28;20613;-76
2023/01/29 06:39:46;;;;;;;8.20;2.93;;;-1.10;99.90;;;;;;5068605;28;20355;-77
2023/01/29 06:42:12;;;;;;;7.40;3.50;;;-1.00;99.90;;;;;;5050076;28;20200;-77
2023/01/29 06:44:37;;;;;;;4.50;2.87;;;-1.10;99.90;;;;;;5069201;28;20652;-77
2023/01/29 06:47:03;;;;;;;6.73;3.20;;;-1.20;99.90;;;;;;5065591;28;20292;-77
2023/01/29 06:49:28;;;;;;;6.57;3.90;;;-1.20;99.90;;;;;;5073233;28;20173;-77
2023/01/29 06:51:54;;;;;;;7.83;3.93;;;-1.20;99.90;;;;;;5062142;28;20555;-75
2023/01/29 06:54:19;;;;;;;6.40;3.97;;;-1.20;99.90;;;;;;5073243;28;20637;-76
2023/01/29 06:56:45;;;;;;;5.00;3.27;;;-1.20;99.90;;;;;;5066597;28;20182;-77
2023/01/29 06:59:11;;;;;;;9.43;4.30;;;-1.20;99.90;;;;;;5066478;28;20700;-78
2023/01/29 07:01:42;;;;;;;4.60;2.47;;;-1.10;99.90;;;;;;5063038;28;20234;-78
2023/01/29 07:04:09;;;;;;;6.40;3.40;;;-1.10;99.90;;;;;;5073495;28;20411;-78
2023/01/29 07:06:34;;;;;;;6.43;4.00;;;-1.10;99.90;;;;;;5074038;28;20907;-78
2023/01/29 07:09:00;;;;;;;7.70;3.67;;;-1.00;99.90;;;;;;5074560;28;20417;-77
2023/01/29 07:11:26;;;;;;;8.10;3.30;;;-1.10;99.90;;;;;;5066137;28;20188;-78
2023/01/29 07:13:52;;;;;;;10.03;3.80;;;-1.10;99.90;;;;;;5068705;28;20403;-78
2023/01/29 07:16:18;;;;;;;5.43;3.60;;;-1.10;99.90;;;;;;5066180;28;20661;-77
2023/01/29 07:18:43;;;;;;;7.37;4.13;;;-1.00;99.90;;;;;;5067907;28;20196;-75
2023/01/29 07:21:09;;;;;;;7.47;4.43;;;-1.10;99.90;;;;;;5054418;28;20223;-75
2023/01/29 07:23:34;;;;;;;6.60;4.00;;;-1.10;99.90;;;;;;5060205;28;20272;-78
2023/01/29 07:26:04;;;;;;;9.90;5.13;;;-1.00;99.90;;;;;;5073733;28;20183;-78
2023/01/29 07:28:30;;;;;;;9.37;4.40;;;-1.00;99.90;;;;;;5059263;28;20564;-78
2023/01/29 07:30:59;;;;;;;11.80;5.23;;;-1.00;99.90;;;;;;5061441;28;20819;-78
2023/01/29 07:33:25;;;;;;;8.00;4.20;;;-0.90;99.90;;;;;;5070003;28;20412;-78
2023/01/29 07:35:51;;;;;;;5.80;3.60;;;-0.90;99.90;;;;;;5053430;28;20421;-78
2023/01/29 07:38:17;;;;;;;4.93;3.00;;;-1.00;99.90;;;;;;5069257;28;20454;-78
2023/01/29 07:40:42;;;;;;;6.03;3.27;;;-1.00;99.90;;;;;;5065340;28;20178;-78
2023/01/29 07:43:08;;;;;;;7.60;4.20;;;-1.00;99.90;;;;;;5051515;28;20179;-78
2023/01/29 07:45:36;;;;;;;5.77;3.23;;;-1.10;99.90;;;;;;5057423;28;20180;-78
2023/01/29 07:48:03;;;;;;;7.93;3.10;;;-1.00;99.90;;;;;;5069408;28;20463;-78
2023/01/29 07:50:30;;;;;;;8.07;3.90;;;-0.90;99.90;;;;;;5064335;28;20405;-78
2023/01/29 07:52:56;;;;;;;7.50;3.37;;;-0.90;99.90;;;;;;5053795;28;20501;-78
2023/01/29 07:55:23;;;;;;;7.13;4.07;;;-0.90;99.90;;;;;;5054050;28;20474;-78
2023/01/29 07:57:55;;;;;;;4.40;2.90;;;-1.00;99.90;;;;;;5054622;28;20200;-75
2023/01/29 08:00:21;;;;;;;8.20;3.83;;;-1.00;99.90;;;;;;5041597;28;20421;-75
2023/01/29 08:02:46;;;;;;;5.10;3.00;;;-1.00;99.90;;;;;;5047378;28;20428;-75
2023/01/29 08:05:12;;;;;;;7.13;4.00;;;-1.00;99.90;;;;;;5054211;28;20901;-76
2023/01/29 08:07:38;;;;;;;9.33;3.80;;;-0.90;99.90;;;;;;5056540;28;20207;-76
2023/01/29 08:10:03;;;;;;;6.53;3.57;;;-0.80;99.90;;;;;;5062949;28;20252;-77
2023/01/29 08:12:29;;;;;;;7.60;3.30;;;-0.90;99.90;;;;;;5059314;28;20630;-77
2023/01/29 08:14:55;;;;;;;4.77;3.33;;;-0.80;99.90;;;;;;5063547;28;20412;-77
2023/01/29 08:17:20;;;;;;;9.30;4.37;;;-0.70;99.90;;;;;;5052727;28;20685;-77
2023/01/29 08:19:46;;;;;;;8.67;4.50;;;-0.80;99.90;;;;;;5059782;28;20186;-77
2023/01/29 08:22:12;;;;;;;6.10;3.90;;;-0.80;99.90;;;;;;5066052;28;20181;-77
2023/01/29 08:24:38;;;;;;;5.43;3.67;;;-0.70;99.90;;;;;;5053179;28;20285;-77
2023/01/29 08:27:03;;;;;;;6.13;3.97;;;-0.70;99.90;;;;;;5053133;28;20197;-78
2023/01/29 08:29:29;;;;;;;7.27;3.83;;;-0.60;99.90;;;;;;5053790;28;20412;-77
2023/01/29 08:31:54;;;;;;;7.00;3.77;;;-0.70;99.90;;;;;;5052963;28;20185;-77
2023/01/29 08:34:20;;;;;;;5.50;3.40;;;-0.70;99.90;;;;;;5065024;28;20172;-77
2023/01/29 08:36:46;;;;;;;11.07;4.63;;;-0.60;99.90;;;;;;5055873;28;20263;-77
2023/01/29 08:39:12;;;;;;;9.10;4.00;;;-0.60;99.90;;;;;;5064267;28;20181;-77
2023/01/29 08:41:37;;;;;;;6.07;4.40;;;-0.60;99.90;;;;;;5055955;28;20182;-77
2023/01/29 08:44:03;;;;;;;8.67;4.80;;;-0.60;99.90;;;;;;5048187;28;20201;-76
2023/01/29 08:46:30;;;;;;;7.83;4.30;;;-0.70;99.90;;;;;;5056527;28;21299;-76
2023/01/29 08:48:55;;;;;;;7.13;3.40;;;-0.60;99.90;;;;;;5052916;28;20534;-76
2023/01/29 08:51:23;;;;;;;9.43;3.60;;;-0.60;99.90;;;;;;5052817;28;20912;-76
2023/01/29 08:53:48;;;;;;;10.30;4.73;;;-0.60;99.90;;;;;;5052472;28;20252;-76
2023/01/29 08:56:15;;;;;;;10.37;4.90;;;-0.50;99.90;;;;;;5066375;28;20580;-76
2023/01/29 08:58:41;;;;;;;10.70;5.27;;;-0.50;99.90;;;;;;5053080;28;20177;-76
2023/01/29 09:01:12;;;;;;;10.43;4.93;;;-0.50;99.90;;;;;;5056753;28;20423;-76
2023/01/29 09:03:42;;;;;;;7.63;4.00;;;-0.50;99.90;;;;;;5064751;28;20173;-76
2023/01/29 09:06:10;;;;;;;11.30;6.10;;;-0.40;99.90;;;;;;5051820;28;20894;-76
2023/01/29 09:08:35;;;;;;;7.93;4.30;;;-0.40;99.90;;;;;;5066244;28;20411;-75
2023/01/29 09:11:01;;;;;;;7.00;4.33;;;-0.40;99.90;;;;;;5054193;28;20527;-76
2023/01/29 09:13:26;;;;;;;7.37;3.97;;;-0.50;99.90;;;;;;5052868;28;20178;-79
2023/01/29 09:15:52;;;;;;;19.70;4.80;;;-0.50;99.90;;;;;;5066447;28;20554;-76
2023/01/29 09:18:20;;;;;;;10.57;5.07;;;-0.40;99.90;;;;;;5051862;28;20669;-76
2023/01/29 09:20:46;;;;;;;6.87;3.90;;;-0.40;99.90;;;;;;5044729;28;20166;-76
2023/01/29 09:23:12;;;;;;;4.60;3.50;;;-0.40;99.90;;;;;;5052923;28;20508;-77
2023/01/29 09:25:37;;;;;;;8.83;4.50;;;-0.50;99.90;;;;;;5054726;28;20474;-76
2023/01/29 09:28:05;;;;;;;7.00;3.37;;;-0.40;99.90;;;;;;5056513;28;20236;-76
2023/01/29 09:30:32;;;;;;;8.60;4.33;;;-0.40;99.90;;;;;;5079775;28;20651;-76
2023/01/29 09:32:59;;;;;;;7.17;4.70;;;-0.30;99.90;;;;;;5066819;28;20411;-76
2023/01/29 09:35:25;;;;;;;9.20;4.90;;;-0.20;99.90;;;;;;5061005;28;20438;-75
2023/01/29 09:37:51;;;;;;;9.40;4.40;;;-0.10;99.90;;;;;;5059642;28;20408;-76
2023/01/29 09:40:25;;;;;;;5.80;3.70;;;-0.10;99.90;;;;;;5059117;28;20178;-76
2023/01/29 09:43:12;;;;;;;8.57;4.90;;;0.00;99.90;;;;;;5057114;28;20420;-76
2023/01/29 09:45:51;;;;;;;6.27;4.10;;;-0.10;99.90;;;;;;5058682;28;20399;-76
2023/01/29 09:48:18;;;;;;;6.67;3.70;;;-0.10;99.90;;;;;;5058219;28;20396;-79
2023/01/29 09:50:47;;;;;;;7.30;4.20;;;-0.10;99.90;;;;;;5058101;28;20432;-79
2023/01/29 09:53:20;;;;;;;7.47;3.67;;;-0.10;99.90;;;;;;5076641;28;20411;-78
2023/01/29 09:55:52;;;;;;;6.50;4.57;;;-0.10;99.90;;;;;;5077807;28;20899;-77
2023/01/29 09:58:33;;;;;;;6.00;3.50;;;-0.10;99.90;;;;;;5036082;28;20838;-78
2023/01/29 10:01:08;;;;;;;4.57;2.67;;;-0.10;99.90;;;;;;5037789;28;20901;-79
2023/01/29 10:04:17;;;;;;;8.83;3.80;;;-0.10;99.90;;;;;;5055604;28;20485;-78
2023/01/29 10:07:08;;;;;;;6.13;3.93;;;-0.10;99.90;;;;;;5014819;28;20953;-77
2023/01/29 10:10:05;;;;;;;4.70;2.83;;;-0.10;99.90;;;;;;5028322;28;20918;-79
2023/01/29 10:12:51;;;;;;;8.10;4.13;;;0.00;99.90;;;;;;5066451;28;20897;-78
2023/01/29 10:15:39;;;;;;;8.80;4.10;;;-0.10;99.90;;;;;;5063999;28;20416;-78
2023/01/29 10:18:47;;;;;;;11.97;4.20;;;-0.10;99.90;;;;;;5066294;28;20530;-78
2023/01/29 10:21:44;;;;;;;7.33;3.67;;;0.10;99.90;;;;;;5073628;28;20430;-77
2023/01/29 10:24:45;;;;;;;10.97;4.83;;;0.30;99.90;;;;;;5096999;28;20419;-77
2023/01/29 10:27:16;;;;;;;10.73;5.17;;;0.40;99.90;;;;;;5099508;28;20526;-76
2023/01/29 10:29:44;;;;;;;6.50;4.10;;;0.70;99.90;;;;;;5096701;28;20403;-77
2023/01/29 10:32:18;;;;;;;6.77;3.47;;;0.80;99.90;;;;;;5075817;28;20743;-77
2023/01/29 10:34:56;;;;;;;6.80;3.67;;;0.90;99.90;;;;;;5076473;28;20406;-76
2023/01/29 10:37:25;;;;;;;8.17;3.47;;;1.00;99.90;;;;;;5066136;28;20422;-77
2023/01/29 10:39:51;;;;;;;4.63;2.97;;;1.10;99.90;;;;;;5054779;28;20591;-77
2023/01/29 10:42:40;;;;;;;6.20;3.13;;;1.00;99.90;;;;;;5062960;28;20499;-76
2023/01/29 10:45:37;;;;;;;4.70;3.10;;;1.00;99.90;;;;;;5054783;28;20189;-77
2023/01/29 10:48:21;;;;;;;7.10;3.03;;;1.00;99.90;;;;;;5054676;28;20476;-76
2023/01/29 10:51:10;;;;;;;5.13;2.90;;;1.10;99.90;;;;;;5054408;28;20424;-76
2023/01/29 10:53:52;;;;;;;4.97;2.50;;;1.20;99.90;;;;;;5043028;28;20792;-76
2023/01/29 10:56:35;;;;;;;7.00;3.03;;;1.20;99.90;;;;;;5060924;28;20423;-76
2023/01/29 10:59:08;;;;;;;5.23;2.77;;;1.40;99.90;;;;;;5059288;28;20837;-76
2023/01/29 11:01:34;;;;;;;3.63;2.37;;;1.50;99.90;;;;;;5062020;28;20743;-75
2023/01/29 11:04:05;;;;;;;5.00;2.53;;;1.40;99.90;;;;;;5059757;28;20451;-75
2023/01/29 11:06:34;;;;;;;3.17;2.20;;;1.40;99.90;;;;;;5053819;28;20280;-76
2023/01/29 11:09:11;;;;;;;6.70;3.03;;;1.40;99.90;;;;;;5055232;28;20413;-76
2023/01/29 11:11:43;;;;;;;3.53;2.17;;;1.40;99.90;;;;;;5063910;28;20458;-76
2023/01/29 11:14:13;;;;;;;5.77;3.13;;;1.50;99.90;;;;;;5070393;28;20477;-76
2023/01/29 11:16:45;;;;;;;17.10;7.37;;;1.60;99.90;;;;;;5063147;28;20451;-76
2023/01/29 11:19:11;;;;;;;5.43;3.00;;;1.50;99.90;;;;;;5058754;28;20451;-76
2023/01/29 11:22:00;;;;;;;5.63;2.70;;;1.40;99.90;;;;;;5054839;28;20459;-73
2023/01/29 11:24:26;;;;;;;4.73;3.20;;;1.30;99.90;;;;;;5040963;28;20414;-73
2023/01/29 11:26:56;;;;;;;5.10;2.57;;;1.30;99.90;;;;;;5039993;28;20504;-73
2023/01/29 11:29:55;;;;;;;3.30;2.60;;;1.40;99.90;;;;;;5052023;28;20432;-73
2023/01/29 11:32:20;;;;;;;6.30;3.37;;;1.20;99.90;;;;;;5053417;28;20975;-73
2023/01/29 11:35:20;;;;;;;7.63;4.10;;;1.30;99.90;;;;;;5053392;28;20420;-73
2023/01/29 11:37:46;;;;;;;4.03;3.00;;;1.20;99.90;;;;;;5053247;28;20264;-74
2023/01/29 11:40:18;;;;;;;5.53;3.27;;;1.40;99.90;;;;;;5051884;28;20463;-73
2023/01/29 11:42:44;;;;;;;7.87;3.43;;;1.50;99.90;;;;;;5059236;28;20416;-74
2023/01/29 11:45:22;;;;;;;11.23;4.57;;;1.50;99.90;;;;;;5069492;28;20424;-74
2023/01/29 11:47:54;;;;;;;3.47;2.43;;;1.40;99.90;;;;;;5060746;28;20551;-73
2023/01/29 11:50:23;;;;;;;4.87;3.27;;;1.30;99.90;;;;;;5040378;28;20424;-76
2023/01/29 11:52:49;;;;;;;4.27;2.83;;;1.40;99.90;;;;;;5065604;28;20864;-76
2023/01/29 11:55:22;;;;;;;5.17;2.93;;;1.40;99.90;;;;;;5038225;28;20550;-76
2023/01/29 11:57:54;;;;;;;6.97;3.10;;;1.30;99.90;;;;;;5066348;28;20173;-76
2023/01/29 12:00:20;;;;;;;8.60;3.73;;;1.40;99.90;;;;;;5052542;28;20426;-76
2023/01/29 12:03:03;;;;;;;5.60;3.17;;;1.30;99.90;;;;;;5052284;28;20416;-75
2023/01/29 12:05:29;;;;;;;5.20;3.33;;;1.40;99.90;;;;;;5052654;28;20189;-76
2023/01/29 12:07:58;;;;;;;8.00;3.77;;;1.40;99.90;;;;;;5064845;28;20821;-76
2023/01/29 12:10:32;;;;;;;4.70;3.00;;;1.40;99.90;;;;;;5052512;28;20194;-76
2023/01/29 12:13:24;;;;;;;9.20;4.00;;;1.50;99.90;;;;;;5064194;28;20435;-76
2023/01/29 12:16:14;;;;;;;10.53;3.80;;;1.40;99.90;;;;;;5052337;28;20459;-76
2023/01/29 12:18:48;;;;;;;5.80;4.17;;;1.30;99.90;;;;;;5052560;28;20428;-76
2023/01/29 12:21:21;;;;;;;6.73;3.33;;;1.30;99.90;;;;;;5045500;28;20411;-76
2023/01/29 12:23:59;;;;;;;7.77;4.50;;;1.30;99.90;;;;;;5064090;28;20435;-77
2023/01/29 12:26:37;;;;;;;8.60;3.60;;;1.30;99.90;;;;;;5052277;28;20452;-77
2023/01/29 12:29:24;;;;;;;7.77;3.80;;;1.20;99.90;;;;;;5056907;28;20403;-77
2023/01/29 12:32:27;;;;;;;7.93;3.93;;;1.30;99.90;;;;;;5058729;28;20440;-77
2023/01/29 12:35:12;;;;;;;4.80;2.90;;;1.30;99.90;;;;;;5040199;28;20419;-77
2023/01/29 12:37:47;;;;;;;9.97;4.30;;;1.30;99.90;;;;;;5052482;28;20408;-77
2023/01/29 12:40:15;;;;;;;9.33;4.43;;;1.40;99.90;;;;;;5051045;28;20455;-77
2023/01/29 12:42:45;;;;;;;7.40;3.60;;;1.40;99.90;;;;;;5051761;28;20490;-76
2023/01/29 12:45:16;;;;;;;11.40;4.90;;;1.30;99.90;;;;;;5050579;28;20427;-77
2023/01/29 12:47:47;;;;;;;9.57;4.33;;;1.40;99.90;;;;;;5052930;28;20509;-78
2023/01/29 12:50:20;;;;;;;8.53;4.03;;;1.30;99.90;;;;;;5045448;28;20424;-78
2023/01/29 12:52:51;;;;;;;7.50;3.83;;;1.50;99.90;;;;;;5033046;28;20496;-79
2023/01/29 12:55:26;;;;;;;5.53;3.00;;;1.50;99.90;;;;;;5061079;28;20411;-78
2023/01/29 12:58:11;;;;;;;8.20;3.43;;;1.40;99.90;;;;;;5055621;28;20457;-78
2023/01/29 13:00:41;;;;;;;9.20;3.53;;;1.40;99.90;;;;;;5050955;28;20949;-79
2023/01/29 13:03:16;;;;;;;5.27;3.10;;;1.40;99.90;;;;;;5051662;28;20920;-76
2023/01/29 13:05:52;;;;;;;7.20;3.43;;;1.50;99.90;;;;;;5051989;28;20419;-75
2023/01/29 13:08:29;;;;;;;7.30;3.87;;;1.50;99.90;;;;;;5051928;28;20885;-75
2023/01/29 13:10:57;;;;;;;7.17;4.00;;;1.50;99.90;;;;;;5068970;28;20407;-73
2023/01/29 13:13:31;;;;;;;4.87;2.67;;;1.50;99.90;;;;;;5060272;28;20440;-74
2023/01/29 13:15:59;;;;;;;8.03;3.87;;;1.60;99.90;;;;;;5052973;28;20431;-74
2023/01/29 13:18:47;;;;;;;6.47;4.03;;;1.70;99.90;;;;;;5051718;28;20478;-74
2023/01/29 13:21:26;;;;;;;7.50;3.37;;;1.70;99.90;;;;;;5048387;28;20408;-75
2023/01/29 13:23:56;;;;;;;6.50;3.50;;;1.90;99.90;;;;;;5053263;28;20450;-74
2023/01/29 13:26:23;;;;;;;7.50;3.43;;;1.80;99.90;;;;;;5051706;28;20448;-75
2023/01/29 13:28:50;;;;;;;7.07;3.50;;;1.90;99.90;;;;;;5054712;28;20408;-74
2023/01/29 13:31:22;;;;;;;5.20;3.00;;;1.90;99.90;;;;;;5060110;28;20416;-74
2023/01/29 13:34:06;;;;;;;6.70;4.30;;;1.90;99.90;;;;;;5057684;28;20411;-74
2023/01/29 13:36:32;;;;;;;10.97;4.20;;;1.90;99.90;;;;;;5046852;28;20415;-75
2023/01/29 13:39:07;;;;;;;6.50;3.50;;;1.90;99.90;;;;;;5060660;28;21024;-75
2023/01/29 13:41:41;;;;;;;8.37;3.00;;;1.90;99.90;;;;;;5054395;28;20494;-75
2023/01/29 13:44:38;;;;;;;7.20;3.57;;;1.90;99.90;;;;;;5049236;28;20508;-76